Enter the Airport ICAO Code

Search by Airport or City

Current Weather

KSFB | Orlando Sanford International Airport

Orlando, Florida, United States

Last Update 36 Minutes Ago

Clear Sky at Low Altitude

Temperature of 12 ºC

Light to Moderate Winds from North

Temperature

12 ºC

Dew Point Temperature

09 ºC

Relative Humidity

81.94 %

Wind Direction

North (010º, Without Significant Variations)

Wind Velocity

15 km/h (08 kt)

Gusts

None

Visibility

Greater than 10 Miles

Sea Level Pressure

30.45 inHg (Inches of Mercury)

Layers of Clouds

None

METAR KSFB 090853Z 01008KT 10SM CLR 12/09 A3045 RMK AO2 SLP309 T01220089 56013

Weather Forecast

KSFB | Orlando Sanford International Airport

Orlando, Florida, United States

Forecast valid for the next 21 Hours

From now on it is expected:

Clear Sky

Moderate Winds from North

In 7 hours it is expected the begining of:

Partly Cloudy Sky

Moderate Winds from East

In 15 hours it is expected the begining of:

Clear Sky

Light Winds from NorthEast

Maximum Temperature

No Data

Minimum Temperature

No Data

TAF KSFB 090536Z 0906/1006 01011KT P6SM SKC FM091600 08010KT P6SM SCT050 FM100000 04003KT P6SM SKC